Time;durP1;ratioP1;P1;durP2;ratioP2;P2;SDS_P1;SDS_P2;PMS_P1;PMS_P2;Temp;Humidity;BMP_temperature;BMP_pressure;BME280_temperature;BME280_humidity;BME280_pressure;Samples;Min_cycle;Max_cycle;Signal;HPM_P1;HPM_P2
2022/01/03 00:01:16;;;;;;;;;4.75;2.00;;;;;12.03;75.77;101044.38;5038072;28;45417;-68
2022/01/03 00:03:42;;;;;;;;;4.75;2.00;;;;;12.02;75.75;101040.03;5037841;28;45637;-64
2022/01/03 00:06:07;;;;;;;;;7.75;5.25;;;;;12.02;75.69;101055.84;5047043;28;45488;-64
2022/01/03 00:08:33;;;;;;;;;6.50;4.50;;;;;11.99;75.57;101056.75;5044960;28;45434;-66
2022/01/03 00:10:58;;;;;;;;;5.00;3.00;;;;;11.99;75.83;101046.22;5044419;28;45496;-67
2022/01/03 00:13:24;;;;;;;;;5.00;3.50;;;;;11.99;75.47;101055.91;5058558;28;45408;-67
2022/01/03 00:15:52;;;;;;;;;4.00;3.75;;;;;11.98;75.70;101049.78;5053475;28;45522;-68
2022/01/03 00:18:18;;;;;;;;;6.50;3.50;;;;;11.98;75.78;101059.47;5057860;28;45368;-68
2022/01/03 00:20:55;;;;;;;;;4.50;3.00;;;;;11.95;75.99;101062.22;5055706;28;45370;-66
2022/01/03 00:23:25;;;;;;;;;6.00;3.00;;;;;11.89;75.99;101068.59;5053578;28;45418;-64
2022/01/03 00:25:59;;;;;;;;;10.25;3.00;;;;;11.82;76.19;101054.78;5050668;28;45639;-66
2022/01/03 00:28:34;;;;;;;;;8.00;3.00;;;;;11.81;76.21;101060.97;5056405;28;47052;-68
2022/01/03 00:31:00;;;;;;;;;9.25;3.25;;;;;11.79;75.96;101073.38;5058127;28;45350;-67
2022/01/03 00:33:27;;;;;;;;;4.00;1.75;;;;;11.74;76.37;101069.16;5057976;28;45324;-66
2022/01/03 00:35:55;;;;;;;;;4.00;0.00;;;;;11.69;76.38;101064.09;5059422;28;45450;-66
2022/01/03 00:38:22;;;;;;;;;6.75;3.00;;;;;11.69;76.82;101062.28;5070321;28;46130;-67
2022/01/03 00:40:48;;;;;;;;;4.00;3.00;;;;;11.67;76.47;101076.47;5078116;28;45282;-66
2022/01/03 00:43:15;;;;;;;;;6.00;3.00;;;;;11.65;76.85;101067.72;5073935;27;45318;-66
2022/01/03 00:45:40;;;;;;;;;6.25;1.75;;;;;11.64;77.12;101076.53;5058244;28;45362;-67
2022/01/03 00:48:07;;;;;;;;;12.25;3.00;;;;;11.63;77.29;101086.22;5059965;28;46457;-67
2022/01/03 00:50:33;;;;;;;;;5.25;3.25;;;;;11.66;77.01;101091.38;5061091;28;45323;-67
2022/01/03 00:52:58;;;;;;;;;3.00;0.00;;;;;11.67;77.20;101063.28;5042314;28;45339;-67
2022/01/03 00:55:24;;;;;;;;;7.50;2.75;;;;;11.73;76.97;101075.34;5060687;28;45566;-66
2022/01/03 00:58:07;;;;;;;;;9.25;2.00;;;;;11.76;76.99;101070.84;5061565;28;45485;-67
2022/01/03 01:00:37;;;;;;;;;4.00;2.25;;;;;11.73;76.87;101075.34;5062472;28;45473;-67
2022/01/03 01:03:12;;;;;;;;;8.25;4.00;;;;;11.71;77.08;101072.78;5060015;28;45387;-65
2022/01/03 01:05:43;;;;;;;;;5.00;2.00;;;;;11.72;77.05;101076.28;5060172;28;45565;-67
2022/01/03 01:08:09;;;;;;;;;4.75;4.00;;;;;11.66;76.66;101059.78;5063977;28;45426;-67
2022/01/03 01:10:39;;;;;;;;;6.50;3.00;;;;;11.64;77.16;101074.78;5063574;28;44788;-67
2022/01/03 01:13:08;;;;;;;;;6.75;1.50;;;;;11.59;77.15;101067.94;5044176;28;45257;-66
2022/01/03 01:15:35;;;;;;;;;7.50;2.25;;;;;11.55;77.40;101067.22;5063312;28;45391;-65
2022/01/03 01:18:04;;;;;;;;;5.00;2.50;;;;;11.55;77.63;101067.22;5061011;28;45294;-67
2022/01/03 01:20:30;;;;;;;;;8.50;2.00;;;;;11.51;77.82;101061.19;5067900;28;45285;-67
2022/01/03 01:22:56;;;;;;;;;1.25;1.25;;;;;11.47;77.88;101067.47;5071628;28;45552;-63
2022/01/03 01:25:27;;;;;;;;;8.75;3.75;;;;;11.46;77.73;101073.66;5060733;28;45223;-63
2022/01/03 01:27:56;;;;;;;;;8.00;2.50;;;;;11.47;78.01;101067.47;5060466;28;47500;-63
2022/01/03 01:30:26;;;;;;;;;6.75;3.75;;;;;11.45;78.24;101066.66;5059870;28;45540;-63
2022/01/03 01:32:57;;;;;;;;;5.75;3.50;;;;;11.45;78.01;101060.56;5060234;28;45458;-63
2022/01/03 01:35:24;;;;;;;;;3.25;1.25;;;;;11.42;78.25;101058.03;5060334;28;45704;-61
2022/01/03 01:37:54;;;;;;;;;4.25;2.00;;;;;11.37;78.20;101042.38;5059902;28;46360;-61
2022/01/03 01:40:23;;;;;;;;;5.75;2.50;;;;;11.41;78.28;101051.91;5060746;28;45203;-63
2022/01/03 01:42:49;;;;;;;;;7.00;2.75;;;;;11.42;78.34;101042.22;5054551;28;45291;-62
2022/01/03 01:45:17;;;;;;;;;5.75;2.50;;;;;11.40;78.65;101043.16;5060199;28;45555;-61
2022/01/03 01:47:42;;;;;;;;;4.25;2.00;;;;;11.42;78.41;101060.66;5067115;28;45998;-62
2022/01/03 01:50:09;;;;;;;;;8.50;2.75;;;;;11.40;78.47;101058.94;5078703;28;45368;-65
2022/01/03 01:52:37;;;;;;;;;4.50;0.75;;;;;11.40;78.66;101055.44;5080962;28;45260;-64
2022/01/03 01:55:12;;;;;;;;;3.25;2.00;;;;;11.38;78.64;101041.47;5080974;28;45466;-64
2022/01/03 01:58:13;;;;;;;;;5.50;2.50;;;;;11.36;78.95;101035.41;5079135;27;46217;-63
2022/01/03 02:00:44;;;;;;;;;6.50;2.00;;;;;11.33;78.78;101031.13;5081224;28;45361;-65
2022/01/03 02:03:18;;;;;;;;;11.25;2.75;;;;;11.33;78.48;101038.16;5081820;27;45351;-62
2022/01/03 02:05:55;;;;;;;;;5.25;3.00;;;;;11.21;78.78;101027.13;5080444;28;45475;-63
2022/01/03 02:08:27;;;;;;;;;10.25;2.75;;;;;11.27;79.14;101036.59;5079678;28;45580;-62
2022/01/03 02:11:01;;;;;;;;;12.50;3.75;;;;;11.24;78.94;101041.97;5079271;28;45423;-63
2022/01/03 02:13:28;;;;;;;;;4.75;3.50;;;;;11.24;79.28;101047.25;5079389;28;45426;-66
2022/01/03 02:15:59;;;;;;;;;7.75;2.75;;;;;11.19;78.79;101047.41;5079589;27;45437;-63
2022/01/03 02:18:26;;;;;;;;;7.00;3.50;;;;;11.18;79.57;101047.47;5078132;28;45800;-63
2022/01/03 02:20:53;;;;;;;;;8.25;1.75;;;;;11.13;79.38;101036.22;5079336;28;45327;-61
2022/01/03 02:23:19;;;;;;;;;4.50;3.00;;;;;11.10;79.08;101034.56;5079840;27;45500;-63
2022/01/03 02:25:45;;;;;;;;;7.75;3.75;;;;;11.15;79.50;101037.88;5081073;27;45405;-61
2022/01/03 02:28:10;;;;;;;;;6.75;3.00;;;;;11.14;79.67;101041.44;5078860;27;46744;-64
2022/01/03 02:30:36;;;;;;;;;6.25;2.00;;;;;11.14;79.23;101045.84;5078886;28;45367;-65
2022/01/03 02:33:03;;;;;;;;;3.75;1.00;;;;;11.08;79.65;101045.13;5079057;27;45375;-62
2022/01/03 02:35:28;;;;;;;;;2.00;2.00;;;;;11.12;79.57;101048.53;5079068;28;45284;-62
2022/01/03 02:37:54;;;;;;;;;3.75;3.50;;;;;11.15;79.55;101058.94;5079528;27;45963;-64
2022/01/03 02:40:20;;;;;;;;;3.00;2.75;;;;;11.17;79.61;101070.28;5080812;28;45304;-67
2022/01/03 02:42:47;;;;;;;;;4.00;3.25;;;;;11.14;79.84;101057.22;5080341;28;45292;-63
2022/01/03 02:45:16;;;;;;;;;4.75;1.75;;;;;11.21;79.49;101063.16;5082245;28;45478;-63
2022/01/03 02:47:45;;;;;;;;;6.50;1.50;;;;;11.22;79.66;101049.94;5081241;28;46126;-65
2022/01/03 02:50:11;;;;;;;;;4.25;3.75;;;;;11.25;79.80;101049.81;5079396;27;45211;-63
2022/01/03 02:52:37;;;;;;;;;4.75;3.50;;;;;11.28;79.75;101050.63;5078159;27;45382;-64
2022/01/03 02:55:06;;;;;;;;;2.25;1.75;;;;;11.29;79.62;101057.59;5078612;28;45612;-62
2022/01/03 02:57:41;;;;;;;;;4.00;3.50;;;;;11.28;79.82;101058.53;5078121;28;46093;-62
2022/01/03 03:00:11;;;;;;;;;2.75;1.25;;;;;11.25;78.94;101055.09;5078441;27;45407;-65
2022/01/03 03:02:36;;;;;;;;;7.75;4.00;;;;;11.27;79.85;101051.53;5060796;28;45247;-64
2022/01/03 03:05:06;;;;;;;;;8.00;2.75;;;;;11.25;79.46;101052.44;5078571;27;45667;-62
2022/01/03 03:07:31;;;;;;;;;4.75;2.75;;;;;11.21;79.42;101042.09;5078039;28;46150;-62
2022/01/03 03:09:58;;;;;;;;;6.50;2.50;;;;;11.27;79.70;101041.00;5077940;28;45495;-62
2022/01/03 03:12:24;;;;;;;;;8.00;3.00;;;;;11.23;79.58;101030.56;5080796;28;45267;-63
2022/01/03 03:14:50;;;;;;;;;7.50;3.00;;;;;11.24;nan;101029.66;5078428;27;45565;-63
2022/01/03 03:17:19;;;;;;;;;4.25;2.50;;;;;11.27;79.70;101022.56;5078353;28;45431;-63
2022/01/03 03:19:58;;;;;;;;;6.00;2.50;;;;;11.29;nan;101026.88;5078220;27;45386;-64
2022/01/03 03:22:26;;;;;;;;;3.75;2.25;;;;;11.29;79.48;101021.59;5076779;28;45363;-63
2022/01/03 03:24:59;;;;;;;;;6.25;2.50;;;;;11.30;79.79;101027.72;5076970;27;45196;-62
2022/01/03 03:27:25;;;;;;;;;7.50;3.00;;;;;11.25;79.35;101031.38;5077962;28;45369;-67
2022/01/03 03:29:50;;;;;;;;;7.50;2.75;;;;;11.30;79.83;101027.72;5077968;27;45400;-64
2022/01/03 03:32:20;;;;;;;;;9.50;2.25;;;;;11.30;79.86;101036.50;5078860;28;45358;-63
2022/01/03 03:34:47;;;;;;;;;11.50;2.25;;;;;11.32;79.34;101029.41;5078967;28;45496;-62
2022/01/03 03:37:13;;;;;;;;;7.50;1.75;;;;;11.31;79.53;101021.53;5078149;27;46339;-63
2022/01/03 03:39:39;;;;;;;;;7.00;3.00;;;;;11.36;79.31;101032.75;5086062;28;45279;-66
2022/01/03 03:42:06;;;;;;;;;3.75;2.00;;;;;11.36;79.51;101030.13;5092938;28;45281;-63
2022/01/03 03:44:32;;;;;;;;;4.25;4.25;;;;;11.41;79.01;101033.47;5086334;27;45482;-62
2022/01/03 03:46:58;;;;;;;;;4.50;2.75;;;;;11.38;79.33;101021.28;5078269;28;45403;-64
2022/01/03 03:49:24;;;;;;;;;10.75;2.75;;;;;11.46;79.03;101030.66;5079813;28;45436;-64
2022/01/03 03:51:49;;;;;;;;;6.25;3.25;;;;;11.49;78.82;101020.03;5078526;28;45442;-64
2022/01/03 03:54:14;;;;;;;;;4.00;3.25;;;;;11.54;78.84;101023.34;5078764;27;44792;-65
2022/01/03 03:56:40;;;;;;;;;5.00;3.50;;;;;11.53;78.49;101011.09;5078097;27;45531;-64
2022/01/03 03:59:06;;;;;;;;;6.00;2.00;;;;;11.61;78.50;101016.91;5077895;27;45574;-64
2022/01/03 04:01:32;;;;;;;;;7.50;1.00;;;;;11.64;78.79;101018.56;5078523;27;45227;-64
2022/01/03 04:03:57;;;;;;;;;4.50;1.50;;;;;11.69;79.04;101014.00;5078463;27;45533;-63
2022/01/03 04:06:23;;;;;;;;;5.50;2.50;;;;;11.63;78.25;101001.91;5077675;28;46867;-63
2022/01/03 04:08:49;;;;;;;;;7.00;2.00;;;;;11.72;78.73;101008.63;5077906;28;45310;-63
2022/01/03 04:11:15;;;;;;;;;5.50;1.00;;;;;11.72;78.46;101000.72;5078805;28;45199;-64
2022/01/03 04:13:40;;;;;;;;;5.75;3.75;;;;;11.74;78.56;100995.38;5081159;27;45472;-64
2022/01/03 04:16:07;;;;;;;;;3.75;1.25;;;;;11.70;78.48;100992.00;5084302;27;45258;-64
2022/01/03 04:18:32;;;;;;;;;9.75;4.75;;;;;11.65;78.88;100986.91;5080908;28;45330;-63
2022/01/03 04:20:58;;;;;;;;;3.75;3.00;;;;;11.64;78.93;100979.91;5077617;28;45632;-63
2022/01/03 04:23:24;;;;;;;;;6.00;2.50;;;;;11.62;79.15;100991.41;5059847;28;45421;-65
2022/01/03 04:25:51;;;;;;;;;8.50;2.00;;;;;11.60;78.97;100990.63;5078203;27;45303;-65
2022/01/03 04:28:17;;;;;;;;;7.25;1.75;;;;;11.54;79.47;100971.50;5077973;28;45466;-63
2022/01/03 04:30:42;;;;;;;;;4.75;2.00;;;;;11.57;79.53;100972.28;5077760;28;45244;-62
2022/01/03 04:33:07;;;;;;;;;5.50;2.75;;;;;11.57;79.39;100981.06;5077493;28;45215;-65
2022/01/03 04:35:33;;;;;;;;;3.25;2.75;;;;;11.54;79.54;100976.75;5077876;28;45267;-63
2022/01/03 04:37:58;;;;;;;;;5.00;2.00;;;;;11.53;79.27;100975.03;5077617;28;45306;-64
2022/01/03 04:40:24;;;;;;;;;4.75;2.00;;;;;11.46;79.34;100949.00;5076292;28;45318;-62
2022/01/03 04:42:51;;;;;;;;;6.25;3.00;;;;;11.49;79.30;100968.16;5081294;27;45277;-61
2022/01/03 04:45:17;;;;;;;;;5.25;2.50;;;;;11.50;79.72;100961.16;5081624;28;46142;-62
2022/01/03 04:47:42;;;;;;;;;5.50;3.25;;;;;11.48;79.60;100961.19;5080478;28;45410;-69
2022/01/03 04:50:08;;;;;;;;;6.75;2.50;;;;;11.47;79.43;100959.47;5081096;28;45353;-63
2022/01/03 04:52:33;;;;;;;;;2.25;1.75;;;;;11.47;79.48;100963.91;5081027;28;45516;-64
2022/01/03 04:55:01;;;;;;;;;7.50;2.00;;;;;11.44;79.46;100954.31;5080831;27;46146;-62
2022/01/03 04:57:26;;;;;;;;;6.00;1.00;;;;;11.45;79.48;100965.72;5080372;27;45423;-63
2022/01/03 04:59:52;;;;;;;;;1.50;1.25;;;;;11.44;79.47;100967.50;5081253;27;45346;-61
2022/01/03 05:02:17;;;;;;;;;5.75;2.50;;;;;11.41;79.49;100962.34;5080924;27;45602;-65
2022/01/03 05:04:43;;;;;;;;;6.25;1.25;;;;;11.45;79.24;100958.66;5080339;28;45250;-65
2022/01/03 05:07:09;;;;;;;;;2.50;2.00;;;;;11.44;79.68;100954.31;5080838;28;45319;-64
2022/01/03 05:09:34;;;;;;;;;4.50;3.00;;;;;11.44;79.36;100962.22;5080618;28;45268;-63
2022/01/03 05:12:00;;;;;;;;;4.00;2.00;;;;;11.19;79.10;100910.47;5081050;28;45324;-62
2022/01/03 05:14:25;;;;;;;;;10.25;3.00;;;;;11.43;79.60;100942.06;5081321;28;46253;-63
2022/01/03 05:16:52;;;;;;;;;4.00;2.00;;;;;11.43;79.48;100947.34;5087060;28;45150;-65
2022/01/03 05:19:18;;;;;;;;;7.00;2.25;;;;;11.45;79.46;100950.75;5090927;28;45433;-63
2022/01/03 05:21:46;;;;;;;;;7.00;2.50;;;;;11.45;79.75;100952.56;5081629;27;45419;-64
2022/01/03 05:24:11;;;;;;;;;6.00;3.00;;;;;11.44;79.46;100945.56;5080620;27;46574;-61
2022/01/03 05:26:36;;;;;;;;;8.00;2.25;;;;;11.44;79.82;100948.22;5080799;27;45392;-63
2022/01/03 05:29:02;;;;;;;;;10.25;2.50;;;;;11.45;79.93;100953.41;5080374;27;45877;-64
2022/01/03 05:31:28;;;;;;;;;3.75;1.50;;;;;11.41;79.48;100938.63;5080344;27;45300;-64
2022/01/03 05:33:53;;;;;;;;;1.50;1.25;;;;;11.44;79.88;100949.06;5079903;28;46116;-64
2022/01/03 05:36:19;;;;;;;;;5.00;2.00;;;;;11.45;79.58;100955.19;5080622;27;45296;-66
2022/01/03 05:38:44;;;;;;;;;7.50;2.00;;;;;11.45;80.19;100955.19;5062054;28;45730;-63
2022/01/03 05:41:09;;;;;;;;;7.00;2.75;;;;;11.45;80.06;100949.94;5080169;28;45524;-62
2022/01/03 05:43:35;;;;;;;;;4.50;2.75;;;;;11.45;79.93;100965.72;5080068;28;45335;-61
2022/01/03 05:46:00;;;;;;;;;4.00;1.50;;;;;11.44;79.34;100950.84;5081290;28;45170;-63
2022/01/03 05:48:25;;;;;;;;;7.50;2.75;;;;;11.50;79.73;100958.50;5082036;28;45511;-62
2022/01/03 05:50:51;;;;;;;;;5.50;1.25;;;;;11.49;79.59;100957.63;5080650;28;45210;-62
2022/01/03 05:53:16;;;;;;;;;3.50;2.00;;;;;11.50;80.09;100943.53;5078531;28;45335;-63
2022/01/03 05:55:41;;;;;;;;;2.75;1.50;;;;;11.51;79.76;100947.91;5079358;28;45421;-63
2022/01/03 05:58:07;;;;;;;;;8.50;3.25;;;;;11.50;80.07;100954.09;5079873;27;45461;-63
2022/01/03 06:00:32;;;;;;;;;2.00;2.00;;;;;11.47;80.10;100948.94;5081228;27;45528;-62
2022/01/03 06:02:58;;;;;;;;;5.25;1.75;;;;;11.48;79.92;100955.91;5081488;27;45387;-62
2022/01/03 06:08:16;;;;;;;;;4.50;2.75;;;;;11.49;79.89;100960.28;5047628;28;45417;-62
2022/01/03 06:10:42;;;;;;;;;5.25;3.00;;;;;11.48;nan;100958.56;5081896;28;45446;-63
2022/01/03 06:13:08;;;;;;;;;11.75;3.25;;;;;11.47;80.29;100951.56;5079527;28;46157;-63
2022/01/03 06:15:38;;;;;;;;;5.50;2.00;;;;;11.47;80.15;100940.19;5063850;28;45378;-63
2022/01/03 06:18:04;;;;;;;;;8.00;2.50;;;;;11.47;79.69;100951.56;5079606;27;45412;-64
2022/01/03 06:20:31;;;;;;;;;8.75;2.50;;;;;11.44;nan;100956.94;5079817;28;45388;-63
2022/01/03 06:22:56;;;;;;;;;5.50;2.50;;;;;11.44;79.89;100954.31;5080288;27;46790;-63
2022/01/03 06:25:22;;;;;;;;;9.50;5.50;;;;;11.42;80.19;100940.34;5061678;28;45271;-63
2022/01/03 06:27:47;;;;;;;;;7.75;2.00;;;;;11.44;79.82;100956.94;5082737;28;45323;-63
2022/01/03 06:30:12;;;;;;;;;8.00;5.50;;;;;11.42;79.95;100945.63;5083383;28;45583;-63
2022/01/03 06:32:38;;;;;;;;;3.75;1.75;;;;;11.43;79.99;100944.69;5062943;28;46959;-62
2022/01/03 06:35:04;;;;;;;;;8.25;5.00;;;;;11.44;79.77;100946.41;5079460;28;45387;-64
2022/01/03 06:37:30;;;;;;;;;6.25;2.00;;;;;11.40;80.19;100935.16;5079575;27;45389;-64
2022/01/03 06:39:55;;;;;;;;;6.25;3.00;;;;;11.44;80.33;100927.13;5079614;28;45422;-66
2022/01/03 06:42:21;;;;;;;;;6.75;3.00;;;;;11.41;79.99;100925.47;5080674;27;45286;-63
2022/01/03 06:44:48;;;;;;;;;6.75;2.00;;;;;11.44;79.83;100927.13;5080941;28;45457;-63
2022/01/03 06:47:14;;;;;;;;;5.75;2.25;;;;;11.44;80.40;100917.44;5081935;27;45249;-63
2022/01/03 06:49:39;;;;;;;;;8.25;3.25;;;;;11.45;79.70;100921.78;5082383;28;45366;-63
2022/01/03 06:52:05;;;;;;;;;5.75;1.25;;;;;11.45;80.06;100921.78;5080227;27;45401;-63
2022/01/03 06:54:33;;;;;;;;;6.00;2.75;;;;;11.47;79.94;100921.75;5089931;28;45327;-66
2022/01/03 06:56:58;;;;;;;;;4.25;2.75;;;;;11.48;80.28;100936.63;5082515;27;45414;-64
2022/01/03 06:59:23;;;;;;;;;3.25;1.00;;;;;11.47;79.83;100927.84;5079461;28;45673;-63
2022/01/03 07:01:49;;;;;;;;;5.00;2.00;;;;;11.45;79.73;100924.44;5080429;27;46099;-62
2022/01/03 07:04:14;;;;;;;;;3.50;3.50;;;;;11.48;80.10;100924.31;5077731;28;45330;-63
2022/01/03 07:06:40;;;;;;;;;6.25;2.25;;;;;11.49;80.21;100936.56;5078426;27;45259;-63
2022/01/03 07:09:07;;;;;;;;;5.00;2.50;;;;;11.49;80.40;100927.81;5078712;28;45245;-63
2022/01/03 07:11:33;;;;;;;;;4.75;3.75;;;;;11.48;80.02;100910.28;5077894;27;47015;-63
2022/01/03 07:18:56;;;;;;;;;4.75;4.00;;;;;11.48;79.98;100912.94;5077766;27;45271;-63
2022/01/03 07:19:36;;;;;;;;;4.75;0.00;;;;;11.49;80.40;100909.38;5085225;28;45302;-65
2022/01/03 07:22:05;;;;;;;;;4.50;3.50;;;;;11.47;79.91;100903.31;5079066;27;45489;-64
2022/01/03 07:24:32;;;;;;;;;2.50;2.50;;;;;11.49;79.97;100904.94;5060219;28;45348;-64
2022/01/03 07:27:01;;;;;;;;;8.25;2.50;;;;;11.46;80.46;100910.34;5080239;28;45346;-63
2022/01/03 07:29:27;;;;;;;;;13.00;7.25;;;;;11.49;80.63;100909.38;5078508;27;45335;-63
2022/01/03 07:31:52;;;;;;;;;7.50;4.50;;;;;11.49;80.54;100907.59;5078449;28;45296;-62
2022/01/03 07:34:17;;;;;;;;;4.75;3.00;;;;;11.49;80.58;100902.31;5078153;28;45244;-64
2022/01/03 07:36:43;;;;;;;;;3.75;2.75;;;;;11.49;80.20;100898.84;5078170;28;45438;-61
2022/01/03 07:39:08;;;;;;;;;11.25;4.00;;;;;11.51;80.67;100900.47;5078023;27;45587;-62
2022/01/03 07:41:33;;;;;;;;;9.25;3.25;;;;;11.49;80.05;100894.41;5059112;28;45870;-63
2022/01/03 07:43:59;;;;;;;;;11.75;4.25;;;;;11.48;80.28;100897.97;5078065;28;45292;-64
2022/01/03 07:46:24;;;;;;;;;8.50;4.50;;;;;11.47;80.52;100895.41;5077596;27;45292;-64
2022/01/03 07:48:50;;;;;;;;;5.25;2.25;;;;;11.48;80.19;100903.22;5078558;27;45221;-65
2022/01/03 07:51:15;;;;;;;;;6.50;3.00;;;;;11.42;80.46;100894.72;5076344;27;45868;-63
2022/01/03 07:53:42;;;;;;;;;7.00;4.00;;;;;11.49;80.81;100893.56;5076514;27;45376;-63
2022/01/03 07:56:09;;;;;;;;;6.00;2.75;;;;;11.45;80.21;100887.53;5076064;27;45311;-64
2022/01/03 07:58:35;;;;;;;;;6.00;3.75;;;;;11.43;80.99;100884.13;5076393;27;45566;-64
2022/01/03 08:01:01;;;;;;;;;10.75;4.25;;;;;11.43;80.57;100868.31;5076901;27;45965;-64
2022/01/03 08:03:26;;;;;;;;;3.25;3.00;;;;;11.54;80.78;100883.72;5078434;28;45406;-62
2022/01/03 08:05:52;;;;;;;;;6.75;2.50;;;;;11.52;80.47;100878.47;5076997;28;45351;-63
2022/01/03 08:08:17;;;;;;;;;6.25;3.00;;;;;11.54;80.50;100875.81;5076801;28;45558;-62
2022/01/03 08:10:45;;;;;;;;;6.50;3.25;;;;;11.53;80.71;100874.94;5075379;27;47064;-65
2022/01/03 08:13:10;;;;;;;;;9.00;4.00;;;;;11.55;80.57;100864.34;5076843;28;45386;-61
2022/01/03 08:15:38;;;;;;;;;9.00;2.00;;;;;11.60;80.52;100878.19;5075379;28;45376;-63
2022/01/03 08:18:03;;;;;;;;;9.00;4.00;;;;;11.59;80.98;100867.69;5076227;28;45451;-63
2022/01/03 08:20:29;;;;;;;;;11.00;4.00;;;;;11.62;81.06;100878.13;5076777;27;46132;-61
2022/01/03 08:22:54;;;;;;;;;6.25;3.25;;;;;11.63;80.99;100872.81;5076759;28;45313;-63
2022/01/03 08:25:20;;;;;;;;;6.00;4.50;;;;;11.62;81.60;100862.31;5082464;27;45862;-65
2022/01/03 08:27:45;;;;;;;;;9.25;3.75;;;;;11.68;80.86;100862.94;5089148;27;45434;-62
2022/01/03 08:30:10;;;;;;;;;7.50;4.25;;;;;11.64;80.67;100849.94;5065945;28;45619;-67
2022/01/03 08:32:36;;;;;;;;;7.25;5.75;;;;;11.73;80.70;100856.63;5056784;28;45386;-68
2022/01/03 08:35:05;;;;;;;;;11.50;5.00;;;;;11.73;80.70;100856.63;5058029;28;45478;-68
2022/01/03 08:37:30;;;;;;;;;14.25;5.25;;;;;11.74;80.72;100856.56;5055912;28;45437;-68
2022/01/03 08:39:58;;;;;;;;;10.00;5.00;;;;;11.76;80.87;100862.63;5054946;28;45189;-65
2022/01/03 08:42:24;;;;;;;;;9.75;6.00;;;;;11.78;80.74;100850.25;5055223;28;45525;-65
2022/01/03 08:44:50;;;;;;;;;5.50;3.75;;;;;11.81;80.78;100855.41;5053128;28;45316;-66
2022/01/03 08:47:15;;;;;;;;;6.00;3.25;;;;;11.81;80.74;100852.75;5056091;28;45534;-65
2022/01/03 08:49:40;;;;;;;;;7.50;4.25;;;;;11.76;80.85;100835.41;5042078;28;45480;-65
2022/01/03 08:52:06;;;;;;;;;7.25;5.00;;;;;11.79;80.81;100845.81;5039885;28;48016;-63
2022/01/03 08:54:31;;;;;;;;;5.00;3.50;;;;;11.82;80.67;100848.34;5037226;28;45331;-65
2022/01/03 08:56:57;;;;;;;;;7.25;3.00;;;;;11.77;81.06;100837.13;5035565;28;45389;-64
2022/01/03 08:59:22;;;;;;;;;7.50;4.25;;;;;11.83;80.97;100835.09;5047899;28;45399;-62
2022/01/03 09:01:48;;;;;;;;;8.00;5.00;;;;;11.87;81.36;100843.72;5054873;28;45454;-65
2022/01/03 09:04:13;;;;;;;;;2.50;1.00;;;;;11.92;81.10;100843.56;5055239;28;45359;-65
2022/01/03 09:06:39;;;;;;;;;11.75;3.00;;;;;11.90;80.53;100848.03;5044975;28;45452;-65
2022/01/03 09:09:06;;;;;;;;;9.00;5.00;;;;;11.91;80.62;100850.59;5033934;28;46076;-66
2022/01/03 09:11:31;;;;;;;;;6.00;3.25;;;;;11.89;80.72;100831.34;5040523;28;45239;-67
2022/01/03 09:13:57;;;;;;;;;13.75;5.25;;;;;11.89;80.74;100836.63;5055002;28;45304;-66
2022/01/03 09:16:22;;;;;;;;;7.25;4.00;;;;;11.89;80.62;100841.03;5055709;28;45200;-65
2022/01/03 09:18:47;;;;;;;;;9.50;5.50;;;;;11.93;80.99;100847.91;5056053;28;46201;-66
2022/01/03 09:21:13;;;;;;;;;6.00;3.00;;;;;11.91;80.47;100837.41;5038289;28;45443;-67
2022/01/03 09:23:43;;;;;;;;;11.00;6.00;;;;;11.87;80.86;100825.28;5054724;28;45355;-67
2022/01/03 09:28:53;;;;;;;;;4.50;3.25;;;;;11.99;81.05;100851.13;5057201;28;45793;-66
2022/01/03 09:31:26;;;;;;;;;6.50;4.00;;;;;12.01;80.23;100826.50;5058568;28;45398;-65
2022/01/03 09:33:53;;;;;;;;;5.50;3.00;;;;;12.03;80.53;100829.94;5040035;28;45518;-68
2022/01/03 09:36:19;;;;;;;;;3.50;3.50;;;;;12.05;80.68;100831.59;5044434;28;45529;-68
2022/01/03 09:38:45;;;;;;;;;5.00;3.25;;;;;12.07;80.05;100829.75;5057730;28;45992;-66
2022/01/03 09:41:13;;;;;;;;;10.75;3.75;;;;;12.13;80.39;100821.59;5058078;28;45466;-66
2022/01/03 09:43:49;;;;;;;;;12.50;3.50;;;;;12.18;80.09;100817.88;5040197;28;45469;-66
2022/01/03 09:46:21;;;;;;;;;4.50;3.00;;;;;12.19;80.08;100807.25;5058414;28;45332;-67
2022/01/03 09:48:52;;;;;;;;;7.50;4.00;;;;;12.25;80.41;100824.59;5060031;28;45535;-68
2022/01/03 09:51:25;;;;;;;;;4.00;3.00;;;;;12.24;79.85;100836.09;5054384;28;45422;-71
2022/01/03 09:53:51;;;;;;;;;7.25;4.25;;;;;12.26;79.57;100827.19;5049237;28;46539;-71
2022/01/03 09:56:18;;;;;;;;;9.50;4.00;;;;;12.29;79.71;100825.34;5050105;28;45394;-69
2022/01/03 09:58:44;;;;;;;;;9.75;3.75;;;;;12.32;79.78;100838.41;5046790;28;46370;-67
2022/01/03 10:01:10;;;;;;;;;8.75;4.75;;;;;12.33;79.58;100832.19;5046476;28;45380;-66
2022/01/03 10:03:36;;;;;;;;;5.00;3.00;;;;;12.33;79.33;100826.94;5052707;28;45377;-64
2022/01/03 10:06:01;;;;;;;;;6.00;4.00;;;;;12.34;79.45;100818.94;5057404;28;45441;-65
2022/01/03 10:08:27;;;;;;;;;8.25;5.00;;;;;12.38;78.98;100817.88;5033567;28;46731;-64
2022/01/03 10:10:53;;;;;;;;;7.00;3.25;;;;;12.42;79.01;100821.25;5036775;28;45467;-65
2022/01/03 10:13:19;;;;;;;;;8.75;4.50;;;;;12.42;78.78;100823.88;5048301;28;45415;-65
2022/01/03 10:15:44;;;;;;;;;5.00;2.75;;;;;12.45;78.50;100828.16;5056167;28;45536;-67
2022/01/03 10:18:20;;;;;;;;;7.25;4.00;;;;;12.29;79.11;100791.91;5042750;28;45962;-65
2022/01/03 10:20:56;;;;;;;;;4.50;2.50;;;;;12.47;78.71;100827.19;5055490;28;45311;-67
2022/01/03 10:23:22;;;;;;;;;7.25;4.00;;;;;12.46;78.62;100821.94;5023750;28;45342;-65
2022/01/03 10:25:47;;;;;;;;;7.50;3.50;;;;;12.52;78.45;100816.41;5056135;28;46495;-65
2022/01/03 10:28:25;;;;;;;;;4.00;4.00;;;;;12.54;77.98;100811.91;5052426;28;46362;-64
2022/01/03 10:30:51;;;;;;;;;7.75;3.00;;;;;12.55;78.20;100810.97;5052865;28;45430;-64
2022/01/03 10:33:22;;;;;;;;;4.75;2.75;;;;;12.54;77.86;100809.28;5052917;28;45463;-65
2022/01/03 10:35:50;;;;;;;;;6.50;3.75;;;;;12.54;77.93;100811.91;5053892;28;45695;-67
2022/01/03 10:38:30;;;;;;;;;5.25;2.00;;;;;12.53;77.93;100808.44;5052980;28;46417;-66
2022/01/03 10:41:10;;;;;;;;;6.00;2.00;;;;;12.53;77.79;100792.59;5027265;28;45422;-70
2022/01/03 10:43:35;;;;;;;;;5.00;2.50;;;;;12.55;77.80;100797.78;5054179;28;45462;-66
2022/01/03 10:46:16;;;;;;;;;6.25;3.75;;;;;12.52;77.72;100790.88;5054899;28;45463;-67
2022/01/03 10:48:42;;;;;;;;;6.00;4.00;;;;;12.55;77.72;100792.50;5053324;28;47183;-67
2022/01/03 10:51:07;;;;;;;;;5.25;2.00;;;;;12.50;77.39;100782.19;5054512;28;45476;-67
2022/01/03 10:53:36;;;;;;;;;9.00;4.50;;;;;12.53;77.42;100779.41;5050413;28;45414;-66
2022/01/03 10:56:20;;;;;;;;;4.25;3.00;;;;;12.55;77.42;100768.75;5051266;28;45574;-68
2022/01/03 10:58:45;;;;;;;;;6.50;5.00;;;;;12.52;77.43;100764.50;5052989;28;45498;-67
2022/01/03 11:01:22;;;;;;;;;8.00;4.00;;;;;12.52;77.22;100761.00;5051696;28;45407;-67
2022/01/03 11:03:49;;;;;;;;;7.25;3.50;;;;;12.53;77.63;100760.94;5051590;28;45510;-66
2022/01/03 11:06:47;;;;;;;;;8.50;3.75;;;;;12.56;77.18;100760.78;5053759;28;45302;-67
2022/01/03 11:11:58;;;;;;;;;7.50;7.25;;;;;12.60;77.22;100739.53;5052645;28;45495;-67
2022/01/03 11:14:30;;;;;;;;;6.75;6.75;;;;;12.64;76.96;100744.59;5051337;28;45497;-68
2022/01/03 11:16:57;;;;;;;;;6.25;4.00;;;;;12.66;76.85;100744.53;5052676;28;45470;-67
2022/01/03 11:19:39;;;;;;;;;6.00;3.50;;;;;12.64;76.59;100725.28;5051935;28;45482;-68
2022/01/03 11:22:05;;;;;;;;;11.00;4.00;;;;;12.73;76.90;100729.28;5042171;28;45431;-69
2022/01/03 11:24:30;;;;;;;;;9.75;5.00;;;;;12.70;76.39;100719.72;5061519;28;45404;-68
2022/01/03 11:26:56;;;;;;;;;8.50;4.00;;;;;12.80;76.30;100722.78;5070408;28;47587;-68
2022/01/03 11:29:22;;;;;;;;;8.25;4.25;;;;;12.83;76.23;100712.94;5054349;28;46313;-69
2022/01/03 11:31:53;;;;;;;;;7.50;4.75;;;;;12.82;76.09;100708.56;5040763;28;45501;-69
2022/01/03 11:34:25;;;;;;;;;9.00;4.00;;;;;12.88;75.86;100710.06;5051113;28;45822;-66
2022/01/03 11:36:51;;;;;;;;;4.75;4.00;;;;;12.90;75.72;100702.94;5054110;28;45578;-66